Time;durP1;ratioP1;P1;durP2;ratioP2;P2;SDS_P1;SDS_P2;PMS_P1;PMS_P2;Temp;Humidity;BMP_temperature;BMP_pressure;BME280_temperature;BME280_humidity;BME280_pressure;Samples;Min_cycle;Max_cycle;Signal;HPM_P1;HPM_P2
2023/10/11 00:01:29;;;;;;;27.90;25.97;;;;;;;;;;5091449;28;20820;-80
2023/10/11 00:03:58;;;;;;;26.87;24.93;;;;;;;;;;5091241;28;20457;-79
2023/10/11 00:06:26;;;;;;;27.57;25.23;;;;;;;;;;5091500;28;20472;-78
2023/10/11 00:08:53;;;;;;;28.00;25.80;;;;;;;;;;5091257;28;20473;-79
2023/10/11 00:11:24;;;;;;;28.20;26.03;;;;;;;;;;5108088;28;20457;-78
2023/10/11 00:13:53;;;;;;;26.73;24.80;;;;;;;;;;5111632;28;20436;-79
2023/10/11 00:16:22;;;;;;;31.37;25.67;;;;;;;;;;5111422;28;20497;-78
2023/10/11 00:18:51;;;;;;;27.87;25.90;;;;;;;;;;5111775;28;20462;-78
2023/10/11 00:21:18;;;;;;;27.33;25.43;;;;;;;;;;5111385;28;20455;-79
2023/10/11 00:23:46;;;;;;;27.50;25.63;;;;;;;;;;5111434;28;20455;-78
2023/10/11 00:26:14;;;;;;;27.20;25.37;;;;;;;;;;5111391;28;20443;-78
2023/10/11 00:28:43;;;;;;;26.67;24.87;;;;;;;;;;5111144;28;20716;-78
2023/10/11 00:31:16;;;;;;;26.83;24.83;;;;;;;;;;5112764;28;20455;-78
2023/10/11 00:33:45;;;;;;;27.43;25.53;;;;;;;;;;5110514;28;20476;-79
2023/10/11 00:36:12;;;;;;;28.40;26.07;;;;;;;;;;5111491;28;20785;-78
2023/10/11 00:38:47;;;;;;;26.93;24.93;;;;;;;;;;5111668;28;20444;-80
2023/10/11 00:41:18;;;;;;;26.50;24.77;;;;;;;;;;5110917;28;20459;-79
2023/10/11 00:43:47;;;;;;;26.23;24.20;;;;;;;;;;5111117;28;20399;-79
2023/10/11 00:46:15;;;;;;;25.50;23.90;;;;;;;;;;5115217;28;20435;-79
2023/10/11 00:48:51;;;;;;;25.27;23.60;;;;;;;;;;5114786;28;21025;-78
2023/10/11 00:51:20;;;;;;;27.77;25.47;;;;;;;;;;5115130;28;20497;-78
2023/10/11 00:53:47;;;;;;;26.63;24.40;;;;;;;;;;5115072;28;20935;-78
2023/10/11 00:56:14;;;;;;;27.00;24.90;;;;;;;;;;5115934;28;20486;-78
2023/10/11 00:58:43;;;;;;;26.17;24.23;;;;;;;;;;5116310;28;20546;-79
2023/10/11 01:01:10;;;;;;;25.97;23.93;;;;;;;;;;5118156;28;20567;-78
2023/10/11 01:03:40;;;;;;;26.70;24.80;;;;;;;;;;5115989;28;20531;-79
2023/10/11 01:06:10;;;;;;;25.43;23.83;;;;;;;;;;5114230;28;20438;-78
2023/10/11 01:08:42;;;;;;;29.47;27.13;;;;;;;;;;5114197;28;20493;-79
2023/10/11 01:11:09;;;;;;;26.67;24.97;;;;;;;;;;5114161;28;20410;-79
2023/10/11 01:13:40;;;;;;;26.43;24.50;;;;;;;;;;5114619;28;20447;-78
2023/10/11 01:16:07;;;;;;;26.23;24.20;;;;;;;;;;5113795;28;20431;-78
2023/10/11 01:18:34;;;;;;;25.40;23.67;;;;;;;;;;5114030;28;20460;-79
2023/10/11 01:21:04;;;;;;;27.23;25.13;;;;;;;;;;5114093;28;20487;-79
2023/10/11 01:23:34;;;;;;;25.33;23.63;;;;;;;;;;5114091;28;20864;-79
2023/10/11 01:26:06;;;;;;;26.03;23.87;;;;;;;;;;5113850;28;20791;-78
2023/10/11 01:28:33;;;;;;;25.80;24.00;;;;;;;;;;5114535;28;20472;-78
2023/10/11 01:31:01;;;;;;;25.23;23.30;;;;;;;;;;5114027;28;20515;-79
2023/10/11 01:33:28;;;;;;;24.40;22.80;;;;;;;;;;5113861;28;20454;-79
2023/10/11 01:35:55;;;;;;;24.47;22.73;;;;;;;;;;5113649;28;20450;-78
2023/10/11 01:38:24;;;;;;;24.70;23.00;;;;;;;;;;5113777;28;20436;-78
2023/10/11 01:40:55;;;;;;;26.13;24.23;;;;;;;;;;5113394;28;20559;-79
2023/10/11 01:43:22;;;;;;;24.00;22.53;;;;;;;;;;5114038;28;20432;-78
2023/10/11 01:45:49;;;;;;;25.67;23.53;;;;;;;;;;5113222;28;20450;-77
2023/10/11 01:48:17;;;;;;;25.13;23.10;;;;;;;;;;5119662;28;20492;-79
2023/10/11 01:50:47;;;;;;;24.43;22.90;;;;;;;;;;5114046;28;20534;-79
2023/10/11 01:53:15;;;;;;;24.30;22.60;;;;;;;;;;5113910;28;20464;-78
2023/10/11 01:55:43;;;;;;;24.27;22.70;;;;;;;;;;5113021;28;20480;-78
2023/10/11 01:58:12;;;;;;;24.23;22.73;;;;;;;;;;5113742;28;20460;-78
2023/10/11 02:00:39;;;;;;;25.70;23.60;;;;;;;;;;5113733;28;20483;-79
2023/10/11 02:03:12;;;;;;;23.90;22.40;;;;;;;;;;5113321;28;20541;-77
2023/10/11 02:05:40;;;;;;;24.90;23.20;;;;;;;;;;5112695;28;20426;-78
2023/10/11 02:08:11;;;;;;;25.40;23.63;;;;;;;;;;5113101;28;20526;-78
2023/10/11 02:10:38;;;;;;;25.40;23.47;;;;;;;;;;5113006;28;20486;-79
2023/10/11 02:13:09;;;;;;;25.50;23.80;;;;;;;;;;5113143;28;20447;-78
2023/10/11 02:15:37;;;;;;;25.40;23.40;;;;;;;;;;5112575;28;20515;-78
2023/10/11 02:18:08;;;;;;;24.93;23.37;;;;;;;;;;5113050;28;20443;-79
2023/10/11 02:20:35;;;;;;;25.80;24.10;;;;;;;;;;5113478;28;20410;-79
2023/10/11 02:23:03;;;;;;;26.10;24.30;;;;;;;;;;5113190;28;20472;-78
2023/10/11 02:25:34;;;;;;;24.60;22.90;;;;;;;;;;5112304;28;20513;-79
2023/10/11 02:28:01;;;;;;;24.23;22.50;;;;;;;;;;5112377;28;20548;-78
2023/10/11 02:30:38;;;;;;;25.40;23.70;;;;;;;;;;5112708;28;20543;-78
2023/10/11 02:33:07;;;;;;;24.90;23.30;;;;;;;;;;5092675;28;20889;-79
2023/10/11 02:35:49;;;;;;;23.70;22.00;;;;;;;;;;5091803;28;20912;-80
2023/10/11 02:38:21;;;;;;;25.27;23.30;;;;;;;;;;5092147;28;21277;-79
2023/10/11 02:40:55;;;;;;;22.80;21.13;;;;;;;;;;5093189;28;20486;-78
2023/10/11 02:43:22;;;;;;;23.77;22.10;;;;;;;;;;5092666;28;20968;-78
2023/10/11 02:45:50;;;;;;;23.70;22.10;;;;;;;;;;5092226;28;20434;-78
2023/10/11 02:48:19;;;;;;;24.43;22.70;;;;;;;;;;5094181;28;20625;-77
2023/10/11 02:50:46;;;;;;;22.97;21.20;;;;;;;;;;5091533;28;20464;-78
2023/10/11 02:53:21;;;;;;;22.73;21.13;;;;;;;;;;5091876;28;20441;-78
2023/10/11 02:55:56;;;;;;;22.77;20.87;;;;;;;;;;5091170;28;20456;-79
2023/10/11 02:58:24;;;;;;;24.23;22.33;;;;;;;;;;5091779;28;20433;-78
2023/10/11 03:01:02;;;;;;;23.60;21.80;;;;;;;;;;5091888;28;20515;-78
2023/10/11 03:03:30;;;;;;;24.47;22.50;;;;;;;;;;5092283;28;20436;-78
2023/10/11 03:05:57;;;;;;;23.83;21.80;;;;;;;;;;5091351;28;20813;-78
2023/10/11 03:08:26;;;;;;;24.50;22.60;;;;;;;;;;5091144;28;20496;-79
2023/10/11 03:10:57;;;;;;;23.73;21.87;;;;;;;;;;5093493;28;20428;-78
2023/10/11 03:13:29;;;;;;;23.73;21.87;;;;;;;;;;5093921;28;20438;-80
2023/10/11 03:15:58;;;;;;;24.53;22.63;;;;;;;;;;5092301;28;20465;-78
2023/10/11 03:18:26;;;;;;;23.10;21.40;;;;;;;;;;5091881;28;20441;-79
2023/10/11 03:21:07;;;;;;;23.13;21.43;;;;;;;;;;5092162;28;20433;-80
2023/10/11 03:23:36;;;;;;;24.10;22.17;;;;;;;;;;5091976;28;20492;-77
2023/10/11 03:26:08;;;;;;;23.77;22.10;;;;;;;;;;5091529;28;20453;-79
2023/10/11 03:28:35;;;;;;;24.13;22.10;;;;;;;;;;5091842;28;20477;-79
2023/10/11 03:31:03;;;;;;;23.27;21.77;;;;;;;;;;5098035;28;20471;-78
2023/10/11 03:33:30;;;;;;;23.30;21.60;;;;;;;;;;5111784;28;20501;-78
2023/10/11 03:36:01;;;;;;;24.47;22.73;;;;;;;;;;5099360;28;20484;-79
2023/10/11 03:38:32;;;;;;;25.17;22.80;;;;;;;;;;5090812;28;20457;-78
2023/10/11 03:41:14;;;;;;;24.60;22.87;;;;;;;;;;5090941;28;20543;-79
2023/10/11 03:43:42;;;;;;;24.57;22.37;;;;;;;;;;5090946;28;20916;-78
2023/10/11 03:46:13;;;;;;;25.40;23.47;;;;;;;;;;5091039;28;20453;-79
2023/10/11 03:48:45;;;;;;;23.33;21.77;;;;;;;;;;5091369;28;20834;-79
2023/10/11 03:51:19;;;;;;;24.07;22.30;;;;;;;;;;5092846;28;20433;-78
2023/10/11 03:53:48;;;;;;;23.80;21.80;;;;;;;;;;5091050;28;20576;-79
2023/10/11 03:56:17;;;;;;;23.67;22.17;;;;;;;;;;5091302;28;20445;-79
2023/10/11 03:58:45;;;;;;;24.50;22.60;;;;;;;;;;5091301;28;20449;-77
2023/10/11 04:01:14;;;;;;;23.90;22.03;;;;;;;;;;5092237;28;20460;-79
2023/10/11 04:03:41;;;;;;;22.80;21.03;;;;;;;;;;5091162;28;20448;-79
2023/10/11 04:06:14;;;;;;;22.83;21.33;;;;;;;;;;5090819;28;20431;-79
2023/10/11 04:08:42;;;;;;;22.40;20.87;;;;;;;;;;5091307;28;20469;-78
2023/10/11 04:11:17;;;;;;;22.33;20.83;;;;;;;;;;5091322;28;20432;-78
2023/10/11 04:13:46;;;;;;;23.37;21.67;;;;;;;;;;5091766;28;20518;-79
2023/10/11 04:16:16;;;;;;;24.07;22.33;;;;;;;;;;5094369;28;20854;-79
2023/10/11 04:18:44;;;;;;;23.30;21.70;;;;;;;;;;5096493;28;20519;-80
2023/10/11 04:21:25;;;;;;;24.10;22.00;;;;;;;;;;5109915;28;20448;-79
2023/10/11 04:23:55;;;;;;;24.93;22.73;;;;;;;;;;5097998;28;20469;-79
2023/10/11 04:26:33;;;;;;;23.90;22.10;;;;;;;;;;5098202;28;20468;-79
2023/10/11 04:29:06;;;;;;;24.37;22.50;;;;;;;;;;5098139;28;20461;-79
2023/10/11 04:31:54;;;;;;;24.63;22.80;;;;;;;;;;5098337;28;20452;-80
2023/10/11 04:34:23;;;;;;;24.57;22.57;;;;;;;;;;5097656;28;20427;-79
2023/10/11 04:36:51;;;;;;;23.87;21.83;;;;;;;;;;5098358;28;20478;-79
2023/10/11 04:39:27;;;;;;;23.77;21.80;;;;;;;;;;5097696;28;20512;-78
2023/10/11 04:41:56;;;;;;;24.07;22.20;;;;;;;;;;5097149;28;20447;-80
2023/10/11 04:44:24;;;;;;;24.40;22.67;;;;;;;;;;5097223;28;20449;-79
2023/10/11 04:46:57;;;;;;;29.20;26.43;;;;;;;;;;5097177;28;20910;-79
2023/10/11 04:49:25;;;;;;;25.37;23.13;;;;;;;;;;5097611;28;20541;-79
2023/10/11 04:51:56;;;;;;;25.00;22.70;;;;;;;;;;5097491;28;20480;-79
2023/10/11 04:54:28;;;;;;;24.63;22.93;;;;;;;;;;5098032;28;20436;-79
2023/10/11 04:56:55;;;;;;;23.63;21.80;;;;;;;;;;5096587;28;20812;-78
2023/10/11 04:59:36;;;;;;;24.27;22.47;;;;;;;;;;5095634;28;20433;-79
2023/10/11 05:02:08;;;;;;;25.37;23.30;;;;;;;;;;5096162;28;20436;-79
2023/10/11 05:04:42;;;;;;;24.00;21.90;;;;;;;;;;5094840;28;20437;-78
2023/10/11 05:07:09;;;;;;;24.20;22.20;;;;;;;;;;5112172;28;20662;-79
2023/10/11 05:09:41;;;;;;;24.10;22.17;;;;;;;;;;5115922;28;20464;-78
2023/10/11 05:12:09;;;;;;;23.90;22.00;;;;;;;;;;5115147;28;20904;-78
2023/10/11 05:14:39;;;;;;;24.23;22.17;;;;;;;;;;5115032;28;20548;-80
2023/10/11 05:17:31;;;;;;;23.30;21.40;;;;;;;;;;5118027;28;20468;-79
2023/10/11 05:20:20;;;;;;;23.80;21.70;;;;;;;;;;5118157;28;20908;-78
2023/10/11 05:22:52;;;;;;;23.17;21.47;;;;;;;;;;5118322;28;20405;-78
2023/10/11 05:28:26;;;;;;;23.27;21.63;;;;;;;;;;5117798;28;20522;-79
2023/10/11 05:33:45;;;;;;;22.60;20.87;;;;;;;;;;5096069;28;20445;-79
2023/10/11 05:36:17;;;;;;;24.63;22.17;;;;;;;;;;5096776;28;20436;-79
2023/10/11 05:52:29;;;;;;;24.63;22.93;;;;;;;;;;5096987;28;20772;-79
2023/10/11 05:54:57;;;;;;;23.43;21.40;;;;;;;;;;5096377;28;20479;-79
2023/10/11 05:57:27;;;;;;;24.17;22.37;;;;;;;;;;5097355;28;20472;-78
2023/10/11 05:59:54;;;;;;;24.00;22.13;;;;;;;;;;5097018;28;20936;-79
2023/10/11 06:02:22;;;;;;;24.27;22.40;;;;;;;;;;5107956;28;20862;-79
2023/10/11 06:04:50;;;;;;;23.70;21.80;;;;;;;;;;5116484;28;20468;-79
2023/10/11 06:07:19;;;;;;;23.90;22.00;;;;;;;;;;5100761;28;20564;-79
2023/10/11 06:09:46;;;;;;;23.43;21.73;;;;;;;;;;5095706;28;21012;-79
2023/10/11 06:12:23;;;;;;;24.70;22.67;;;;;;;;;;5111314;28;20534;-79
2023/10/11 06:14:51;;;;;;;26.13;21.90;;;;;;;;;;5113812;28;20512;-75
2023/10/11 06:17:21;;;;;;;23.60;21.70;;;;;;;;;;5112360;28;20496;-75
2023/10/11 06:19:53;;;;;;;23.63;21.50;;;;;;;;;;5098399;28;20441;-78
2023/10/11 06:22:28;;;;;;;23.83;21.80;;;;;;;;;;5112562;28;20403;-77
2023/10/11 06:24:58;;;;;;;23.17;21.53;;;;;;;;;;5110008;28;20494;-77
2023/10/11 06:30:11;;;;;;;23.80;21.70;;;;;;;;;;5108058;28;20836;-76
2023/10/11 06:32:38;;;;;;;23.03;21.23;;;;;;;;;;5111899;28;20534;-77
2023/10/11 06:35:06;;;;;;;22.87;21.03;;;;;;;;;;5105071;28;20456;-77
2023/10/11 06:37:36;;;;;;;23.70;21.90;;;;;;;;;;5099166;28;20959;-75
2023/10/11 06:40:14;;;;;;;24.67;22.63;;;;;;;;;;5106664;28;20544;-77
2023/10/11 06:42:42;;;;;;;23.87;22.17;;;;;;;;;;5100720;28;20539;-75
2023/10/11 06:45:16;;;;;;;23.97;22.07;;;;;;;;;;5111571;28;20440;-76
2023/10/11 06:47:47;;;;;;;23.60;21.80;;;;;;;;;;5111847;28;20812;-76
2023/10/11 06:50:14;;;;;;;23.47;21.70;;;;;;;;;;5111841;28;20498;-76
2023/10/11 06:52:44;;;;;;;23.83;21.77;;;;;;;;;;5111641;28;20417;-77
2023/10/11 06:55:18;;;;;;;23.97;22.03;;;;;;;;;;5105105;28;20495;-77
2023/10/11 06:57:50;;;;;;;24.77;22.80;;;;;;;;;;5099413;28;20468;-77
2023/10/11 07:00:22;;;;;;;23.43;21.40;;;;;;;;;;5111555;28;20420;-75
2023/10/11 07:02:49;;;;;;;23.03;21.43;;;;;;;;;;5111636;28;20528;-77
2023/10/11 07:05:19;;;;;;;24.27;22.00;;;;;;;;;;5113874;28;20538;-76
2023/10/11 07:07:52;;;;;;;23.43;21.63;;;;;;;;;;5113092;28;20449;-75
2023/10/11 07:10:29;;;;;;;23.07;21.40;;;;;;;;;;5111494;28;20554;-75
2023/10/11 07:13:04;;;;;;;23.23;21.43;;;;;;;;;;5111907;28;20499;-82
2023/10/11 07:15:38;;;;;;;23.17;21.40;;;;;;;;;;5113418;28;20432;-77
2023/10/11 07:18:08;;;;;;;22.47;20.87;;;;;;;;;;5110223;28;20492;-74
2023/10/11 07:20:47;;;;;;;23.40;21.37;;;;;;;;;;5106362;28;20448;-76
2023/10/11 07:23:19;;;;;;;23.63;21.83;;;;;;;;;;5111611;28;20448;-76
2023/10/11 07:25:49;;;;;;;23.00;21.10;;;;;;;;;;5111434;28;20436;-75
2023/10/11 07:28:35;;;;;;;23.33;21.60;;;;;;;;;;5111873;28;20564;-76
2023/10/11 07:31:02;;;;;;;23.33;21.73;;;;;;;;;;5110648;28;20963;-75
2023/10/11 07:33:30;;;;;;;22.40;20.60;;;;;;;;;;5101199;28;20457;-75
2023/10/11 07:35:59;;;;;;;23.30;21.40;;;;;;;;;;5109163;28;20450;-74
2023/10/11 07:38:33;;;;;;;23.73;22.03;;;;;;;;;;5111374;28;20442;-73
2023/10/11 07:41:05;;;;;;;22.57;21.10;;;;;;;;;;5110027;28;20462;-74
2023/10/11 07:43:33;;;;;;;22.13;20.33;;;;;;;;;;5089250;28;20809;-78
2023/10/11 07:46:02;;;;;;;24.23;22.20;;;;;;;;;;5102882;28;20427;-76
2023/10/11 07:48:32;;;;;;;23.27;21.53;;;;;;;;;;5109000;28;20837;-75
2023/10/11 07:51:03;;;;;;;22.03;20.57;;;;;;;;;;5108949;28;20479;-76
2023/10/11 07:53:32;;;;;;;22.90;21.20;;;;;;;;;;5109269;28;20476;-75
2023/10/11 07:55:59;;;;;;;23.53;21.83;;;;;;;;;;5092437;28;20445;-76
2023/10/11 07:58:32;;;;;;;24.27;21.90;;;;;;;;;;5110079;28;20422;-74
2023/10/11 08:01:02;;;;;;;23.20;21.50;;;;;;;;;;5109438;28;20774;-79
2023/10/11 08:03:34;;;;;;;23.43;21.63;;;;;;;;;;5107626;28;20830;-77
2023/10/11 08:06:05;;;;;;;22.87;21.07;;;;;;;;;;5100893;28;20525;-74
2023/10/11 08:08:33;;;;;;;23.37;21.67;;;;;;;;;;5099925;28;20455;-74
2023/10/11 08:11:06;;;;;;;23.20;21.50;;;;;;;;;;5089590;28;20476;-74
2023/10/11 08:13:36;;;;;;;23.40;21.90;;;;;;;;;;5089826;28;20786;-74
2023/10/11 08:16:11;;;;;;;23.77;22.20;;;;;;;;;;5090704;28;20451;-74
2023/10/11 08:18:38;;;;;;;24.53;22.73;;;;;;;;;;5091321;28;20797;-74
2023/10/11 08:21:05;;;;;;;24.20;21.73;;;;;;;;;;5090142;28;20403;-78
2023/10/11 08:23:34;;;;;;;23.00;21.30;;;;;;;;;;5089930;28;20456;-75
2023/10/11 08:26:05;;;;;;;22.50;21.00;;;;;;;;;;5090345;28;20437;-74
2023/10/11 08:28:34;;;;;;;22.20;20.70;;;;;;;;;;5091137;28;20426;-74
2023/10/11 08:31:01;;;;;;;23.80;22.10;;;;;;;;;;5090553;28;20992;-74
2023/10/11 08:33:30;;;;;;;23.40;21.73;;;;;;;;;;5090748;28;20441;-74
2023/10/11 08:35:57;;;;;;;24.30;22.50;;;;;;;;;;5089865;28;20556;-74
2023/10/11 08:38:25;;;;;;;23.73;21.80;;;;;;;;;;5090565;28;20479;-74
2023/10/11 08:40:58;;;;;;;23.80;21.67;;;;;;;;;;5090609;28;20452;-74
2023/10/11 08:43:26;;;;;;;23.47;21.60;;;;;;;;;;5090706;28;20524;-75
2023/10/11 08:46:00;;;;;;;22.80;21.20;;;;;;;;;;5090767;28;20780;-74
2023/10/11 08:48:28;;;;;;;21.90;20.40;;;;;;;;;;5090389;28;20472;-75
2023/10/11 08:50:55;;;;;;;24.33;22.27;;;;;;;;;;5091192;28;20496;-74
2023/10/11 08:53:24;;;;;;;23.57;21.73;;;;;;;;;;5090796;28;20452;-74
2023/10/11 08:55:56;;;;;;;24.00;22.23;;;;;;;;;;5090086;28;20456;-74
2023/10/11 08:58:27;;;;;;;25.00;23.10;;;;;;;;;;5090188;28;20496;-74
2023/10/11 09:00:55;;;;;;;22.10;20.50;;;;;;;;;;5090895;28;20441;-74
2023/10/11 09:03:23;;;;;;;22.97;21.30;;;;;;;;;;5090445;28;20452;-77
2023/10/11 09:05:58;;;;;;;23.70;21.67;;;;;;;;;;5091579;28;20456;-75
2023/10/11 09:08:27;;;;;;;21.83;20.30;;;;;;;;;;5094025;28;20538;-76
2023/10/11 09:11:02;;;;;;;23.70;21.80;;;;;;;;;;5094019;28;21023;-74
2023/10/11 09:13:36;;;;;;;23.93;22.43;;;;;;;;;;5093617;28;20550;-74
2023/10/11 09:16:08;;;;;;;23.17;21.53;;;;;;;;;;5093670;28;20436;-74
2023/10/11 09:18:35;;;;;;;23.13;21.50;;;;;;;;;;5094337;28;20478;-74
2023/10/11 09:21:09;;;;;;;24.53;22.53;;;;;;;;;;5093978;28;21223;-74
2023/10/11 09:23:37;;;;;;;24.43;22.73;;;;;;;;;;5094050;28;20447;-75
2023/10/11 09:26:05;;;;;;;23.03;21.33;;;;;;;;;;5092727;28;20468;-74
2023/10/11 09:28:34;;;;;;;24.00;22.20;;;;;;;;;;5093657;28;20964;-75
2023/10/11 09:31:10;;;;;;;24.83;23.10;;;;;;;;;;5093339;28;20460;-74
2023/10/11 09:33:38;;;;;;;24.63;22.80;;;;;;;;;;5092480;28;20448;-75
2023/10/11 09:36:06;;;;;;;24.10;22.30;;;;;;;;;;5093135;28;20412;-76
2023/10/11 09:38:39;;;;;;;25.00;23.07;;;;;;;;;;5092925;28;20909;-75
2023/10/11 09:41:07;;;;;;;24.17;22.47;;;;;;;;;;5093281;28;20448;-75
2023/10/11 09:43:38;;;;;;;25.17;23.20;;;;;;;;;;5093211;28;20816;-76
2023/10/11 09:46:11;;;;;;;24.47;22.73;;;;;;;;;;5092646;28;20449;-74
2023/10/11 09:48:38;;;;;;;23.37;21.67;;;;;;;;;;5093081;28;20514;-74
2023/10/11 09:51:08;;;;;;;23.70;21.47;;;;;;;;;;5093604;28;20529;-75
2023/10/11 09:53:41;;;;;;;24.57;22.80;;;;;;;;;;5093336;28;20448;-75
2023/10/11 09:56:15;;;;;;;24.40;22.60;;;;;;;;;;5093014;28;20461;-74
2023/10/11 09:58:46;;;;;;;23.93;22.23;;;;;;;;;;5092700;28;20988;-74
2023/10/11 10:01:18;;;;;;;25.80;23.70;;;;;;;;;;5093284;28;20449;-74
2023/10/11 10:03:47;;;;;;;24.70;22.50;;;;;;;;;;5093197;28;20411;-75
2023/10/11 10:06:19;;;;;;;24.43;22.83;;;;;;;;;;5092943;28;20509;-75
2023/10/11 10:08:50;;;;;;;24.97;22.80;;;;;;;;;;5092849;28;21067;-75
2023/10/11 10:11:19;;;;;;;23.30;21.57;;;;;;;;;;5091003;28;20472;-74
2023/10/11 10:14:16;;;;;;;23.70;22.10;;;;;;;;;;5092623;28;21217;-74
2023/10/11 10:17:02;;;;;;;23.83;21.90;;;;;;;;;;5091475;28;20995;-75
2023/10/11 10:19:39;;;;;;;24.17;22.07;;;;;;;;;;5092945;28;20500;-75
2023/10/11 10:22:14;;;;;;;24.53;22.60;;;;;;;;;;5092303;28;20460;-74
2023/10/11 10:24:43;;;;;;;24.50;22.70;;;;;;;;;;5092169;28;20501;-75
2023/10/11 10:27:31;;;;;;;26.40;24.20;;;;;;;;;;5092406;28;20565;-74
2023/10/11 10:29:59;;;;;;;25.10;23.27;;;;;;;;;;5082080;28;20555;-75
2023/10/11 10:32:27;;;;;;;25.00;23.30;;;;;;;;;;5092689;28;20491;-74
2023/10/11 10:35:21;;;;;;;25.17;23.07;;;;;;;;;;5091259;28;20975;-74
2023/10/11 10:37:55;;;;;;;23.23;21.83;;;;;;;;;;5092446;28;20457;-75
2023/10/11 10:40:25;;;;;;;25.37;23.53;;;;;;;;;;5092664;28;20557;-75
2023/10/11 10:43:14;;;;;;;24.30;22.60;;;;;;;;;;5092978;28;20471;-75
2023/10/11 10:45:41;;;;;;;24.27;22.13;;;;;;;;;;5091889;28;20800;-75
2023/10/11 10:48:14;;;;;;;25.13;23.30;;;;;;;;;;5092109;28;20484;-74
2023/10/11 10:50:49;;;;;;;24.47;22.60;;;;;;;;;;5092346;28;20566;-75
2023/10/11 10:53:16;;;;;;;23.57;22.07;;;;;;;;;;5092241;28;20451;-74
2023/10/11 10:55:43;;;;;;;25.20;23.20;;;;;;;;;;5091792;28;20452;-74
2023/10/11 10:58:15;;;;;;;24.43;22.60;;;;;;;;;;5090585;28;20554;-75
2023/10/11 11:00:43;;;;;;;25.43;23.63;;;;;;;;;;5091482;28;20461;-75
2023/10/11 11:03:20;;;;;;;24.50;22.60;;;;;;;;;;5091960;28;20440;-75
2023/10/11 11:05:55;;;;;;;25.00;22.77;;;;;;;;;;5091539;28;20948;-74
2023/10/11 11:08:27;;;;;;;23.97;22.17;;;;;;;;;;5091882;28;20790;-75
2023/10/11 11:10:56;;;;;;;25.13;23.20;;;;;;;;;;5089934;28;20826;-74
2023/10/11 11:13:25;;;;;;;26.50;24.30;;;;;;;;;;5093649;28;20440;-75
2023/10/11 11:15:55;;;;;;;25.40;23.20;;;;;;;;;;5092052;28;20473;-75
2023/10/11 11:18:35;;;;;;;26.23;23.60;;;;;;;;;;5074080;28;20472;-75
2023/10/11 11:21:18;;;;;;;25.50;23.17;;;;;;;;;;5091819;28;20844;-75
2023/10/11 11:23:46;;;;;;;24.93;23.13;;;;;;;;;;5091930;28;20846;-75
2023/10/11 11:26:15;;;;;;;27.53;24.93;;;;;;;;;;5091132;28;20457;-74
2023/10/11 11:28:46;;;;;;;25.23;23.53;;;;;;;;;;5091306;28;20444;-75
2023/10/11 11:31:30;;;;;;;24.77;22.80;;;;;;;;;;5091779;28;20488;-75
2023/10/11 11:34:14;;;;;;;26.60;24.10;;;;;;;;;;5091201;28;20456;-76
2023/10/11 11:36:42;;;;;;;25.93;24.13;;;;;;;;;;5090321;28;20468;-75
2023/10/11 11:39:25;;;;;;;25.87;23.83;;;;;;;;;;5091127;28;20463;-76
2023/10/11 11:41:52;;;;;;;25.60;23.63;;;;;;;;;;5091490;28;20873;-74
2023/10/11 11:44:21;;;;;;;26.70;24.10;;;;;;;;;;5091261;28;21123;-75
2023/10/11 11:46:48;;;;;;;24.73;22.73;;;;;;;;;;5091084;28;20522;-77
2023/10/11 11:49:17;;;;;;;25.20;23.20;;;;;;;;;;5090806;28;20551;-76
2023/10/11 11:51:44;;;;;;;23.90;21.90;;;;;;;;;;5091484;28;20512;-76
2023/10/11 11:54:17;;;;;;;25.10;23.00;;;;;;;;;;5090984;28;20457;-76
2023/10/11 11:56:43;;;;;;;25.83;23.80;;;;;;;;;;5091412;28;20460;-76
2023/10/11 11:59:17;;;;;;;26.03;23.80;;;;;;;;;;5091093;28;20440;-76
2023/10/11 12:01:43;;;;;;;24.83;22.90;;;;;;;;;;5091301;28;20429;-76
2023/10/11 12:04:10;;;;;;;26.17;23.97;;;;;;;;;;5090731;28;20472;-77
2023/10/11 12:06:37;;;;;;;24.93;22.80;;;;;;;;;;5090418;28;20539;-76
2023/10/11 12:09:06;;;;;;;25.10;23.00;;;;;;;;;;5090937;28;20505;-76
2023/10/11 12:11:32;;;;;;;25.83;23.63;;;;;;;;;;5090279;28;20550;-76
2023/10/11 12:14:00;;;;;;;26.97;24.10;;;;;;;;;;5090422;28;20952;-76
2023/10/11 12:16:27;;;;;;;26.37;24.27;;;;;;;;;;5091165;28;20875;-76
2023/10/11 12:18:58;;;;;;;24.00;22.07;;;;;;;;;;5091179;28;20514;-75
2023/10/11 12:21:25;;;;;;;26.23;24.00;;;;;;;;;;5090474;28;20526;-75
2023/10/11 12:23:53;;;;;;;26.50;24.17;;;;;;;;;;5090732;28;20423;-76
2023/10/11 12:26:22;;;;;;;23.67;21.87;;;;;;;;;;5089557;28;20476;-75
2023/10/11 12:28:50;;;;;;;25.37;23.00;;;;;;;;;;5091126;28;20433;-76
2023/10/11 12:31:18;;;;;;;25.53;23.33;;;;;;;;;;5090990;28;20485;-75
2023/10/11 12:33:45;;;;;;;25.67;23.67;;;;;;;;;;5089390;28;20964;-77
2023/10/11 12:36:14;;;;;;;27.20;24.77;;;;;;;;;;5091280;28;20461;-75
2023/10/11 12:38:41;;;;;;;24.77;22.80;;;;;;;;;;5091154;28;20460;-75
2023/10/11 12:41:14;;;;;;;25.60;23.50;;;;;;;;;;5092055;28;20936;-76
2023/10/11 12:43:45;;;;;;;24.70;22.80;;;;;;;;;;5094784;28;20445;-76
2023/10/11 12:46:12;;;;;;;25.30;23.30;;;;;;;;;;5094794;28;20638;-76
2023/10/11 12:48:39;;;;;;;25.43;23.47;;;;;;;;;;5094708;28;20891;-76
2023/10/11 12:51:06;;;;;;;26.40;24.40;;;;;;;;;;5094725;28;20481;-76
2023/10/11 12:53:35;;;;;;;27.50;25.07;;;;;;;;;;5094704;28;20452;-76
2023/10/11 12:56:02;;;;;;;24.63;22.93;;;;;;;;;;5093541;28;20468;-78
2023/10/11 12:58:39;;;;;;;24.27;22.23;;;;;;;;;;5094526;28;20487;-76
2023/10/11 13:01:11;;;;;;;25.80;23.57;;;;;;;;;;5094392;28;20440;-75
2023/10/11 13:03:38;;;;;;;26.47;24.30;;;;;;;;;;5094351;28;20444;-76
2023/10/11 13:06:09;;;;;;;27.30;24.70;;;;;;;;;;5093994;28;20487;-76
2023/10/11 13:08:37;;;;;;;26.57;24.53;;;;;;;;;;5094066;28;20464;-77
2023/10/11 13:11:10;;;;;;;25.83;23.60;;;;;;;;;;5094230;28;20483;-75
2023/10/11 13:13:37;;;;;;;26.10;23.90;;;;;;;;;;5093897;28;21199;-76
2023/10/11 13:16:06;;;;;;;27.07;24.67;;;;;;;;;;5093845;28;20444;-76
2023/10/11 13:18:37;;;;;;;25.13;22.87;;;;;;;;;;5093599;28;20471;-76
2023/10/11 13:21:05;;;;;;;24.63;22.83;;;;;;;;;;5094352;28;20508;-76
2023/10/11 13:23:34;;;;;;;25.83;23.53;;;;;;;;;;5093893;28;20444;-76
2023/10/11 13:26:07;;;;;;;25.40;23.20;;;;;;;;;;5093110;28;20504;-76
2023/10/11 13:28:34;;;;;;;28.00;23.10;;;;;;;;;;5094053;28;20507;-77
2023/10/11 13:31:02;;;;;;;26.23;23.60;;;;;;;;;;5093108;28;20499;-77
2023/10/11 13:33:30;;;;;;;26.93;24.30;;;;;;;;;;5094105;28;20455;-75
2023/10/11 13:35:59;;;;;;;26.70;24.30;;;;;;;;;;5093226;28;20494;-76
2023/10/11 13:38:30;;;;;;;25.30;23.30;;;;;;;;;;5093544;28;20459;-77
2023/10/11 13:40:58;;;;;;;24.73;22.93;;;;;;;;;;5093045;28;20443;-76
2023/10/11 13:43:25;;;;;;;25.13;22.83;;;;;;;;;;5093389;28;20845;-77
2023/10/11 13:45:56;;;;;;;25.33;23.20;;;;;;;;;;5093156;28;20452;-76
2023/10/11 13:48:26;;;;;;;24.73;23.03;;;;;;;;;;5093766;28;20461;-76
2023/10/11 13:50:53;;;;;;;26.23;23.47;;;;;;;;;;5093077;28;20517;-76
2023/10/11 13:53:24;;;;;;;25.23;23.03;;;;;;;;;;5093582;28;20496;-76
2023/10/11 13:55:51;;;;;;;25.83;23.70;;;;;;;;;;5092365;28;20865;-76
2023/10/11 13:58:19;;;;;;;25.83;23.90;;;;;;;;;;5093226;28;20472;-75
2023/10/11 14:01:01;;;;;;;26.20;23.90;;;;;;;;;;5093532;28;20460;-76
2023/10/11 14:06:30;;;;;;;24.80;22.83;;;;;;;;;;5092174;28;20456;-76
2023/10/11 14:09:15;;;;;;;27.37;24.93;;;;;;;;;;5093201;28;20425;-76
2023/10/11 14:11:46;;;;;;;25.23;22.87;;;;;;;;;;5092879;28;20996;-76
2023/10/11 14:14:13;;;;;;;25.47;23.00;;;;;;;;;;5092482;28;20506;-76
2023/10/11 14:16:41;;;;;;;27.07;24.57;;;;;;;;;;5092286;28;21341;-77
2023/10/11 14:19:13;;;;;;;25.90;23.40;;;;;;;;;;5092936;28;20449;-76
2023/10/11 14:21:40;;;;;;;24.90;22.90;;;;;;;;;;5092521;28;21089;-76
2023/10/11 14:24:09;;;;;;;25.97;23.87;;;;;;;;;;5092157;28;20960;-76
2023/10/11 14:26:36;;;;;;;25.60;23.50;;;;;;;;;;5092665;28;20476;-77
2023/10/11 14:29:07;;;;;;;25.83;23.50;;;;;;;;;;5092344;28;20469;-76
2023/10/11 14:31:34;;;;;;;27.50;23.60;;;;;;;;;;5092916;28;20547;-76
2023/10/11 14:34:04;;;;;;;25.67;23.57;;;;;;;;;;5092600;28;20460;-77
2023/10/11 14:36:31;;;;;;;25.43;23.10;;;;;;;;;;5092779;28;20447;-76
2023/10/11 14:38:58;;;;;;;25.87;23.70;;;;;;;;;;5092962;28;20437;-76
2023/10/11 14:41:28;;;;;;;24.80;23.00;;;;;;;;;;5092643;28;20866;-76
2023/10/11 14:43:59;;;;;;;25.30;22.90;;;;;;;;;;5091632;28;20988;-76
2023/10/11 14:46:26;;;;;;;26.07;23.40;;;;;;;;;;5092879;28;20820;-76
2023/10/11 14:48:53;;;;;;;24.33;22.43;;;;;;;;;;5092621;28;20968;-76
2023/10/11 14:51:21;;;;;;;26.40;24.40;;;;;;;;;;5091941;28;20449;-76
2023/10/11 14:53:48;;;;;;;25.30;23.13;;;;;;;;;;5091430;28;20452;-77
2023/10/11 14:56:16;;;;;;;25.07;23.00;;;;;;;;;;5092183;28;20870;-76
2023/10/11 14:58:45;;;;;;;23.40;21.70;;;;;;;;;;5092810;28;20472;-76
2023/10/11 15:01:14;;;;;;;26.67;24.23;;;;;;;;;;5092447;28;20447;-76